Terminal Aerodrome Forecast
Issued by NWS

Home | Current Version | Previous Version | Text Only | Print | Product List | Glossary On
Versions: 1 2 3 4 5 6 7 8 9 10 11 12 13 14 15 16 17 18 19 20 21 22 23 24 25 26 27 28 29
000
FTUS41 KBUF 281100
TAFJHW
TAF
KJHW 281138Z 2812/0112 18004KT P6SM SKC
     FM281600 22004KT P6SM FEW035 SCT250
     FM282200 17004KT P6SM SCT250
     FM010800 17006KT P6SM SCT035 BKN100
     FM011100 17005KT 2SM -SN OVC025
      AMD LTD TO CLD VIS AND WIND=

USA.gov is the U.S. government's official web portal to all federal, state and local government web resources and services.